Time;durP1;ratioP1;P1;durP2;ratioP2;P2;SDS_P1;SDS_P2;PMS_P1;PMS_P2;Temp;Humidity;BMP_temperature;BMP_pressure;BME280_temperature;BME280_humidity;BME280_pressure;Samples;Min_cycle;Max_cycle;Signal;HPM_P1;HPM_P2
2021/03/26 00:00:32;;;;;;;73.70;42.27;;;6.30;99.90;;;;;;5036159;28;20301;-79
2021/03/26 00:02:59;;;;;;;69.50;40.43;;;6.30;99.90;;;;;;5039227;28;20222;-78
2021/03/26 00:05:28;;;;;;;80.03;40.83;;;6.30;99.90;;;;;;5041477;28;20199;-79
2021/03/26 00:07:55;;;;;;;83.30;42.03;;;6.20;99.90;;;;;;5035378;28;20606;-79
2021/03/26 00:10:21;;;;;;;77.90;41.33;;;6.20;99.90;;;;;;5038633;28;20263;-80
2021/03/26 00:12:48;;;;;;;79.17;41.63;;;6.20;99.90;;;;;;5033492;28;20203;-78
2021/03/26 00:15:16;;;;;;;83.23;41.73;;;6.20;99.90;;;;;;5035699;28;20317;-78
2021/03/26 00:17:43;;;;;;;82.00;42.77;;;6.10;99.90;;;;;;5038394;28;20273;-78
2021/03/26 00:20:11;;;;;;;73.97;40.90;;;6.10;99.90;;;;;;5037764;28;20206;-79
2021/03/26 00:22:38;;;;;;;78.67;42.83;;;6.10;99.90;;;;;;5038927;28;20219;-80
2021/03/26 00:25:08;;;;;;;77.20;41.80;;;6.10;99.90;;;;;;5040314;28;20202;-78
2021/03/26 00:27:36;;;;;;;77.67;42.23;;;6.10;99.90;;;;;;5039244;28;20229;-79
2021/03/26 00:30:08;;;;;;;76.23;40.50;;;6.10;99.90;;;;;;5037325;28;20230;-79
2021/03/26 00:32:36;;;;;;;72.47;41.60;;;6.10;99.90;;;;;;5039975;28;20210;-80
2021/03/26 00:35:04;;;;;;;79.53;43.07;;;6.10;99.90;;;;;;5038252;28;20237;-79
2021/03/26 00:37:32;;;;;;;78.17;43.30;;;6.10;99.90;;;;;;5031725;28;20239;-78
2021/03/26 00:39:59;;;;;;;81.03;42.27;;;6.10;99.90;;;;;;5037166;28;20210;-78
2021/03/26 00:42:25;;;;;;;80.37;41.23;;;6.00;99.90;;;;;;5035773;28;20210;-79
2021/03/26 00:44:52;;;;;;;76.53;41.50;;;6.00;99.90;;;;;;5036539;28;20233;-79
2021/03/26 00:47:19;;;;;;;80.03;42.13;;;6.00;99.90;;;;;;5038488;28;20231;-79
2021/03/26 00:49:47;;;;;;;86.80;42.10;;;6.00;99.90;;;;;;5038837;28;20350;-78
2021/03/26 00:52:14;;;;;;;76.63;41.73;;;6.00;99.90;;;;;;5038945;28;20202;-78
2021/03/26 00:54:41;;;;;;;79.43;42.93;;;6.00;99.90;;;;;;5034428;28;20352;-78
2021/03/26 00:57:09;;;;;;;73.37;41.73;;;6.10;99.90;;;;;;5033688;28;20294;-78
2021/03/26 00:59:35;;;;;;;82.53;43.17;;;6.10;99.90;;;;;;5037752;28;20199;-79
2021/03/26 01:02:02;;;;;;;86.47;43.37;;;6.10;99.90;;;;;;5043672;28;20213;-80
2021/03/26 01:04:28;;;;;;;75.13;41.47;;;6.10;99.90;;;;;;5039377;28;20206;-80
2021/03/26 01:06:56;;;;;;;72.80;41.43;;;6.10;99.90;;;;;;5041382;28;20199;-81
2021/03/26 01:09:24;;;;;;;75.90;41.13;;;6.10;99.90;;;;;;5044368;28;20201;-80
2021/03/26 01:11:51;;;;;;;77.57;41.13;;;6.20;99.90;;;;;;5046360;28;20205;-79
2021/03/26 01:14:20;;;;;;;77.17;42.27;;;6.20;99.90;;;;;;5042341;28;20257;-80
2021/03/26 01:16:47;;;;;;;81.90;43.53;;;6.30;99.90;;;;;;5047696;28;20281;-79
2021/03/26 01:19:16;;;;;;;77.27;41.63;;;6.30;99.90;;;;;;5048043;28;20210;-79
2021/03/26 01:21:43;;;;;;;80.57;43.60;;;6.30;99.90;;;;;;5046895;28;20190;-79
2021/03/26 01:24:14;;;;;;;76.70;42.80;;;6.30;99.90;;;;;;5043304;28;20242;-77
2021/03/26 01:26:40;;;;;;;76.90;44.57;;;6.30;99.90;;;;;;5040326;28;20329;-77
2021/03/26 01:29:08;;;;;;;82.43;43.47;;;6.30;99.90;;;;;;5036874;28;20214;-79
2021/03/26 01:31:37;;;;;;;82.87;43.63;;;6.30;99.90;;;;;;5043552;28;20356;-80
2021/03/26 01:34:04;;;;;;;78.30;42.53;;;6.30;99.90;;;;;;5039772;28;20207;-79
2021/03/26 01:36:32;;;;;;;75.73;42.40;;;6.30;99.90;;;;;;5041082;28;20687;-79
2021/03/26 01:38:58;;;;;;;82.53;44.03;;;6.40;99.90;;;;;;5041379;28;20299;-79
2021/03/26 01:41:38;;;;;;;81.07;42.27;;;6.40;99.90;;;;;;5042940;28;20202;-79
2021/03/26 01:44:06;;;;;;;83.77;43.10;;;6.40;99.90;;;;;;5040066;28;20210;-79
2021/03/26 01:46:34;;;;;;;80.43;42.40;;;6.50;99.90;;;;;;5041161;28;20182;-79
2021/03/26 01:49:02;;;;;;;83.00;43.17;;;6.50;99.90;;;;;;5036410;28;20210;-80
2021/03/26 01:51:33;;;;;;;78.57;42.20;;;6.50;99.90;;;;;;5035029;28;20581;-80
2021/03/26 01:54:00;;;;;;;74.17;40.93;;;6.50;99.90;;;;;;5043848;28;20549;-78
2021/03/26 01:56:28;;;;;;;88.37;45.80;;;6.60;99.90;;;;;;5037300;28;20301;-77
2021/03/26 01:58:54;;;;;;;81.00;44.70;;;6.60;99.90;;;;;;5041504;28;20257;-78
2021/03/26 02:01:24;;;;;;;82.93;44.23;;;6.60;99.90;;;;;;5041345;28;20222;-80
2021/03/26 02:03:55;;;;;;;83.20;43.27;;;6.70;99.90;;;;;;5042633;28;20195;-80
2021/03/26 02:06:24;;;;;;;80.03;43.93;;;6.60;99.90;;;;;;5046678;28;20210;-80
2021/03/26 02:08:53;;;;;;;82.73;44.77;;;6.60;99.90;;;;;;5042717;28;20243;-79
2021/03/26 02:11:24;;;;;;;84.37;46.43;;;6.60;99.90;;;;;;5045731;28;20230;-79
2021/03/26 02:13:51;;;;;;;78.53;43.33;;;6.70;99.90;;;;;;5039747;28;20281;-81
2021/03/26 02:16:20;;;;;;;81.50;45.37;;;6.70;99.90;;;;;;5041216;28;20655;-80
2021/03/26 02:18:49;;;;;;;79.53;44.50;;;6.70;99.90;;;;;;5042934;28;20190;-81
2021/03/26 02:21:19;;;;;;;78.57;42.90;;;6.70;99.90;;;;;;5043345;28;20313;-80
2021/03/26 02:23:47;;;;;;;77.47;42.57;;;6.70;99.90;;;;;;5036876;28;20226;-80
2021/03/26 02:26:20;;;;;;;74.97;44.27;;;6.80;99.90;;;;;;5040260;28;20251;-79
2021/03/26 02:28:49;;;;;;;83.80;44.13;;;6.80;99.90;;;;;;5042403;28;20256;-80
2021/03/26 02:31:18;;;;;;;84.30;45.07;;;6.70;99.90;;;;;;5043576;28;20208;-81
2021/03/26 02:33:45;;;;;;;81.23;45.03;;;6.70;99.90;;;;;;5040287;28;20663;-81
2021/03/26 02:36:47;;;;;;;79.93;44.63;;;6.70;99.90;;;;;;5045250;28;20237;-81
2021/03/26 02:39:24;;;;;;;76.80;43.53;;;6.80;99.90;;;;;;5043331;28;20210;-80
2021/03/26 02:41:55;;;;;;;80.60;43.63;;;6.70;99.90;;;;;;5045424;28;20210;-82
2021/03/26 02:44:31;;;;;;;79.27;44.53;;;6.70;99.90;;;;;;5044426;28;20274;-80
2021/03/26 02:47:17;;;;;;;84.80;44.77;;;6.60;99.90;;;;;;5045344;28;20206;-79
2021/03/26 02:49:48;;;;;;;78.20;43.07;;;6.60;99.90;;;;;;5042700;28;20215;-79
2021/03/26 02:52:28;;;;;;;83.13;46.30;;;6.70;99.90;;;;;;5037709;28;20222;-78
2021/03/26 02:55:03;;;;;;;81.63;44.67;;;6.70;99.90;;;;;;5038650;28;20203;-78
2021/03/26 02:57:36;;;;;;;82.53;44.77;;;6.70;99.90;;;;;;5037534;28;20257;-78
2021/03/26 03:00:14;;;;;;;85.57;46.33;;;6.70;99.90;;;;;;5037459;28;20199;-78
2021/03/26 03:02:42;;;;;;;83.97;45.97;;;6.80;99.90;;;;;;5036673;28;20319;-79
2021/03/26 03:05:15;;;;;;;83.03;45.93;;;6.80;99.90;;;;;;5038552;28;20235;-79
2021/03/26 03:07:46;;;;;;;83.87;45.57;;;6.80;99.90;;;;;;5040429;28;20241;-78
2021/03/26 03:10:23;;;;;;;83.90;45.67;;;6.80;99.90;;;;;;5037201;28;20203;-80
2021/03/26 03:12:55;;;;;;;85.90;46.90;;;6.80;99.90;;;;;;5042010;28;20210;-79
2021/03/26 03:15:25;;;;;;;85.50;47.70;;;6.90;99.90;;;;;;5040854;28;20229;-79
2021/03/26 03:17:57;;;;;;;87.37;46.40;;;6.90;99.90;;;;;;5038682;28;20313;-79
2021/03/26 03:20:30;;;;;;;89.93;46.70;;;6.90;99.90;;;;;;5041284;28;20210;-79
2021/03/26 03:23:04;;;;;;;88.90;46.17;;;6.90;99.90;;;;;;5045263;28;20245;-79
2021/03/26 03:25:38;;;;;;;85.67;44.73;;;6.90;99.90;;;;;;5039686;28;20210;-78
2021/03/26 03:28:28;;;;;;;91.07;48.00;;;6.90;99.90;;;;;;5033959;28;20202;-79
2021/03/26 03:31:04;;;;;;;87.43;48.37;;;6.80;99.90;;;;;;5036958;28;20257;-79
2021/03/26 03:33:36;;;;;;;87.37;47.67;;;6.80;99.90;;;;;;5040645;28;20289;-78
2021/03/26 03:36:07;;;;;;;86.77;46.70;;;6.90;99.90;;;;;;5035266;28;20277;-79
2021/03/26 03:38:52;;;;;;;89.10;47.43;;;6.90;99.90;;;;;;5030240;28;20215;-78
2021/03/26 03:41:25;;;;;;;89.67;46.07;;;6.80;99.90;;;;;;5037596;28;20583;-76
2021/03/26 03:44:01;;;;;;;91.33;48.30;;;6.80;99.90;;;;;;5041225;28;20207;-78
2021/03/26 03:46:33;;;;;;;86.83;46.67;;;6.80;99.90;;;;;;5037332;28;20209;-78
2021/03/26 03:49:05;;;;;;;91.93;46.97;;;6.80;99.90;;;;;;5037126;28;20310;-79
2021/03/26 03:51:37;;;;;;;84.77;46.70;;;6.80;99.90;;;;;;5036489;28;20234;-79
2021/03/26 03:54:09;;;;;;;93.17;47.20;;;6.90;99.90;;;;;;5037331;28;20199;-78
2021/03/26 03:56:41;;;;;;;87.87;48.27;;;6.80;99.90;;;;;;5036538;28;20273;-78
2021/03/26 03:59:13;;;;;;;82.83;45.70;;;6.80;99.90;;;;;;5035722;28;20294;-79
2021/03/26 04:01:44;;;;;;;83.50;46.53;;;6.90;99.90;;;;;;5037071;28;20752;-79
2021/03/26 04:04:18;;;;;;;84.30;45.93;;;6.90;99.90;;;;;;5030659;28;20257;-78
2021/03/26 04:06:49;;;;;;;89.87;44.33;;;6.90;99.90;;;;;;5036121;28;20638;-79
2021/03/26 04:09:20;;;;;;;80.67;44.60;;;6.80;99.90;;;;;;5032283;28;20202;-79
2021/03/26 04:11:52;;;;;;;85.20;45.87;;;6.80;99.90;;;;;;5035036;28;20245;-77
2021/03/26 04:14:23;;;;;;;85.30;45.63;;;6.70;99.90;;;;;;5035690;28;20257;-78
2021/03/26 04:16:56;;;;;;;86.03;44.60;;;6.80;99.90;;;;;;5032101;28;20231;-79
2021/03/26 04:19:26;;;;;;;86.03;45.43;;;6.80;99.90;;;;;;5038379;28;20274;-79
2021/03/26 04:21:59;;;;;;;80.20;44.77;;;6.80;99.90;;;;;;5036056;28;20215;-79
2021/03/26 04:24:30;;;;;;;79.90;43.73;;;6.70;99.90;;;;;;5037003;28;20209;-78
2021/03/26 04:27:05;;;;;;;83.67;44.50;;;6.70;99.90;;;;;;5039455;28;20273;-79
2021/03/26 04:29:42;;;;;;;82.20;45.10;;;6.70;99.90;;;;;;5039395;28;20264;-80
2021/03/26 04:32:12;;;;;;;83.70;45.20;;;6.70;99.90;;;;;;5035998;28;20210;-79
2021/03/26 04:34:42;;;;;;;86.63;44.20;;;6.70;99.90;;;;;;5038417;28;20569;-79
2021/03/26 04:37:16;;;;;;;81.43;43.60;;;6.70;99.90;;;;;;5034465;28;20229;-79
2021/03/26 04:39:54;;;;;;;82.50;44.67;;;6.80;99.90;;;;;;5040232;28;20727;-80
2021/03/26 04:42:30;;;;;;;86.70;45.93;;;6.80;99.90;;;;;;5038017;28;20271;-79
2021/03/26 04:45:05;;;;;;;77.33;43.63;;;6.80;99.90;;;;;;5037903;28;20289;-80
2021/03/26 04:47:38;;;;;;;85.03;45.40;;;6.80;99.90;;;;;;5035618;28;20293;-79
2021/03/26 04:50:12;;;;;;;86.33;45.47;;;6.80;99.90;;;;;;5036431;28;20639;-80
2021/03/26 04:52:44;;;;;;;78.10;43.60;;;6.80;99.90;;;;;;5039522;28;20202;-80
2021/03/26 04:55:15;;;;;;;84.10;44.63;;;6.70;99.90;;;;;;5034606;28;20202;-78
2021/03/26 04:57:48;;;;;;;83.97;44.43;;;6.80;99.90;;;;;;5038663;28;20264;-78
2021/03/26 05:00:19;;;;;;;85.80;45.43;;;6.70;99.90;;;;;;5044645;28;20237;-79
2021/03/26 05:02:52;;;;;;;80.13;45.03;;;6.70;99.90;;;;;;5039587;28;20211;-79
2021/03/26 05:05:20;;;;;;;79.47;43.67;;;6.70;99.90;;;;;;5037917;28;20226;-80
2021/03/26 05:07:51;;;;;;;85.03;44.70;;;6.70;99.90;;;;;;5035535;28;20230;-80
2021/03/26 05:10:22;;;;;;;85.87;45.40;;;6.70;99.90;;;;;;5037435;28;20217;-79
2021/03/26 05:12:53;;;;;;;91.03;44.37;;;6.70;99.90;;;;;;5036907;28;20214;-79
2021/03/26 05:15:26;;;;;;;79.20;43.53;;;6.70;99.90;;;;;;5036562;28;20314;-79
2021/03/26 05:17:58;;;;;;;88.90;46.13;;;6.60;99.90;;;;;;5034883;28;20245;-78
2021/03/26 05:20:30;;;;;;;80.80;44.13;;;6.50;99.90;;;;;;5033230;28;20230;-78
2021/03/26 05:23:05;;;;;;;84.57;45.03;;;6.60;99.90;;;;;;5035496;28;20219;-77
2021/03/26 05:25:38;;;;;;;85.60;44.37;;;6.60;99.90;;;;;;5030037;28;20252;-77
2021/03/26 05:28:11;;;;;;;87.97;44.80;;;6.60;99.90;;;;;;5036173;28;20198;-78
2021/03/26 05:30:41;;;;;;;82.37;45.50;;;6.60;99.90;;;;;;5036367;28;20260;-78
2021/03/26 05:33:20;;;;;;;81.77;44.37;;;6.70;99.90;;;;;;5032621;28;20322;-78
2021/03/26 05:35:56;;;;;;;82.33;45.97;;;6.70;99.90;;;;;;5032096;28;20203;-78
2021/03/26 05:38:28;;;;;;;86.23;44.13;;;6.80;99.90;;;;;;5034412;28;20694;-78
2021/03/26 05:41:25;;;;;;;86.17;44.07;;;6.90;99.90;;;;;;5035883;28;20234;-78
2021/03/26 05:44:16;;;;;;;80.90;44.07;;;6.90;99.90;;;;;;5036144;28;20203;-79
2021/03/26 05:47:05;;;;;;;84.83;44.63;;;7.00;99.90;;;;;;5026496;28;20555;-78
2021/03/26 05:49:45;;;;;;;81.30;43.63;;;7.10;99.90;;;;;;5037013;28;20269;-79
2021/03/26 05:52:36;;;;;;;83.37;44.10;;;7.10;99.90;;;;;;5040295;28;20509;-77
2021/03/26 05:55:15;;;;;;;88.07;44.43;;;7.10;99.90;;;;;;5038799;28;20209;-77
2021/03/26 05:57:54;;;;;;;84.37;43.77;;;7.20;99.90;;;;;;5040829;28;20691;-77
2021/03/26 06:00:59;;;;;;;82.00;43.97;;;7.20;99.90;;;;;;5038842;28;20672;-78
2021/03/26 06:04:16;;;;;;;90.93;44.23;;;7.20;99.90;;;;;;5041764;28;20270;-79
2021/03/26 06:07:14;;;;;;;90.10;45.90;;;7.30;99.90;;;;;;5035316;28;20237;-78
2021/03/26 06:10:22;;;;;;;84.00;46.57;;;7.20;99.90;;;;;;5037021;28;20594;-79
2021/03/26 06:13:17;;;;;;;86.60;44.13;;;7.30;99.90;;;;;;5034349;28;20256;-78
2021/03/26 06:16:19;;;;;;;89.93;45.47;;;7.30;99.90;;;;;;5036306;28;20209;-78
2021/03/26 06:19:09;;;;;;;82.73;43.23;;;7.40;99.90;;;;;;5035903;28;20245;-77
2021/03/26 06:21:44;;;;;;;80.67;44.47;;;7.40;99.90;;;;;;5037064;28;20650;-79
2021/03/26 06:24:45;;;;;;;80.50;45.03;;;7.30;99.90;;;;;;5040647;28;20205;-79
2021/03/26 06:27:19;;;;;;;83.40;44.47;;;7.30;99.90;;;;;;4980333;28;20228;-80
2021/03/26 06:29:57;;;;;;;84.63;46.30;;;7.30;99.90;;;;;;5032275;28;20599;-79
2021/03/26 06:33:16;;;;;;;82.13;44.83;;;7.30;99.90;;;;;;5043307;28;20198;-78
2021/03/26 06:36:19;;;;;;;84.87;45.17;;;7.40;99.90;;;;;;5042623;28;20283;-78
2021/03/26 06:39:19;;;;;;;87.03;46.93;;;7.50;99.90;;;;;;5030610;28;20369;-78
2021/03/26 06:42:12;;;;;;;81.33;45.70;;;7.50;99.90;;;;;;5033636;28;20206;-80
2021/03/26 06:45:05;;;;;;;81.47;45.13;;;7.50;99.90;;;;;;5044949;28;20226;-80
2021/03/26 06:47:48;;;;;;;86.37;43.93;;;7.50;99.90;;;;;;5017803;28;20202;-79
2021/03/26 06:50:24;;;;;;;89.27;47.03;;;7.60;99.90;;;;;;5035623;28;20585;-79
2021/03/26 06:53:04;;;;;;;84.97;45.53;;;7.60;99.90;;;;;;5043731;28;20663;-79
2021/03/26 06:55:57;;;;;;;89.17;48.57;;;7.70;99.90;;;;;;5039945;28;20229;-80
2021/03/26 06:58:50;;;;;;;84.13;44.93;;;7.80;99.90;;;;;;5047022;28;20233;-79
2021/03/26 07:01:34;;;;;;;86.17;45.63;;;7.90;99.90;;;;;;5044760;28;20583;-80
2021/03/26 07:04:35;;;;;;;90.20;46.50;;;7.90;99.90;;;;;;5049041;28;20208;-80
2021/03/26 07:07:44;;;;;;;89.40;46.37;;;8.00;99.90;;;;;;5051428;28;20210;-77
2021/03/26 07:10:36;;;;;;;86.47;45.73;;;8.00;99.90;;;;;;5047436;28;20210;-77
2021/03/26 07:13:45;;;;;;;91.60;47.37;;;8.00;99.90;;;;;;5036766;28;20267;-78
2021/03/26 07:16:51;;;;;;;87.60;46.33;;;8.00;99.90;;;;;;5049802;28;20198;-77
2021/03/26 07:19:44;;;;;;;87.33;43.77;;;8.00;99.90;;;;;;5022037;28;20214;-78
2021/03/26 07:22:26;;;;;;;89.53;47.63;;;8.10;99.90;;;;;;5040908;28;20270;-77
2021/03/26 07:25:18;;;;;;;87.17;44.50;;;8.10;99.90;;;;;;5038940;28;20288;-77
2021/03/26 07:27:57;;;;;;;91.97;45.57;;;8.20;99.90;;;;;;5038403;28;20234;-76
2021/03/26 07:30:45;;;;;;;93.50;47.10;;;8.30;99.90;;;;;;5040039;28;20730;-77
2021/03/26 07:33:19;;;;;;;90.80;45.50;;;8.40;99.90;;;;;;5038997;28;20380;-76
2021/03/26 07:36:05;;;;;;;78.80;44.87;;;8.40;99.90;;;;;;5036222;28;20727;-77
2021/03/26 07:39:11;;;;;;;83.97;45.07;;;8.50;99.90;;;;;;5033398;28;20229;-77
2021/03/26 07:42:02;;;;;;;80.33;44.57;;;8.60;99.90;;;;;;5034978;28;20202;-77
2021/03/26 07:44:54;;;;;;;86.63;45.30;;;8.80;99.90;;;;;;5041343;28;20206;-76
2021/03/26 07:47:54;;;;;;;80.87;44.00;;;8.90;99.90;;;;;;5036044;28;20286;-78
2021/03/26 07:50:58;;;;;;;80.47;43.53;;;9.10;99.90;;;;;;5030740;28;20202;-75
2021/03/26 07:53:55;;;;;;;77.50;41.77;;;9.20;99.90;;;;;;5013546;28;20573;-78
2021/03/26 07:56:41;;;;;;;75.97;43.97;;;9.30;99.90;;;;;;5033426;28;20242;-75
2021/03/26 07:59:48;;;;;;;76.87;42.07;;;9.40;99.90;;;;;;5035325;28;20198;-74
2021/03/26 08:02:34;;;;;;;81.40;45.63;;;9.60;99.90;;;;;;5032004;28;20229;-76
2021/03/26 08:05:06;;;;;;;79.73;43.40;;;9.70;99.90;;;;;;5033831;28;20637;-73
2021/03/26 08:08:14;;;;;;;77.83;44.83;;;9.80;99.80;;;;;;5036555;28;20202;-74
2021/03/26 08:10:49;;;;;;;90.50;45.20;;;9.90;99.50;;;;;;5015198;28;20568;-75
2021/03/26 08:13:44;;;;;;;80.13;44.80;;;10.10;98.60;;;;;;5030732;28;20225;-73
2021/03/26 08:16:38;;;;;;;84.43;45.90;;;10.20;97.80;;;;;;5031068;28;20210;-75
2021/03/26 08:19:16;;;;;;;77.63;44.40;;;10.40;97.50;;;;;;5021279;28;20353;-76
2021/03/26 08:21:56;;;;;;;79.33;44.93;;;10.70;96.70;;;;;;5043095;28;20203;-75
2021/03/26 08:24:51;;;;;;;82.40;45.70;;;10.60;95.90;;;;;;5035390;28;20216;-74
2021/03/26 08:27:28;;;;;;;77.57;45.17;;;10.60;95.40;;;;;;5041762;28;20213;-76
2021/03/26 08:30:21;;;;;;;82.03;44.90;;;10.70;95.60;;;;;;5040757;28;20207;-78
2021/03/26 08:32:59;;;;;;;75.00;43.53;;;10.80;95.00;;;;;;5041984;28;20225;-79
2021/03/26 08:35:58;;;;;;;78.63;44.03;;;11.00;94.30;;;;;;5042734;28;20210;-77
2021/03/26 08:38:41;;;;;;;73.80;44.57;;;11.10;94.40;;;;;;5035981;28;20318;-77
2021/03/26 08:41:14;;;;;;;77.27;43.80;;;11.20;93.30;;;;;;5036751;28;20207;-76
2021/03/26 08:43:48;;;;;;;76.53;45.40;;;11.40;92.80;;;;;;5034478;28;20233;-77
2021/03/26 08:46:19;;;;;;;83.25;54.63;;;11.50;92.50;;;;;;5028907;28;20458;-76
2021/03/26 08:48:51;;;;;;;84.80;49.77;;;11.70;91.70;;;;;;5036525;28;20205;-79
2021/03/26 08:51:53;;;;;;;78.47;46.07;;;11.80;91.20;;;;;;5037507;28;20286;-79
2021/03/26 08:54:37;;;;;;;85.07;47.70;;;12.00;90.20;;;;;;5041973;28;20221;-79
2021/03/26 08:57:14;;;;;;;75.80;45.33;;;12.20;90.00;;;;;;5035125;28;20257;-78
2021/03/26 08:59:55;;;;;;;81.83;47.27;;;12.40;88.80;;;;;;5033609;28;20628;-78
2021/03/26 09:03:09;;;;;;;79.90;44.47;;;12.80;87.80;;;;;;5036292;28;20289;-78
2021/03/26 09:05:58;;;;;;;73.27;44.67;;;13.40;85.10;;;;;;5031898;28;20285;-77
2021/03/26 09:08:50;;;;;;;77.67;44.47;;;13.90;81.70;;;;;;5030374;28;20294;-79
2021/03/26 09:11:41;;;;;;;71.10;44.57;;;14.40;76.70;;;;;;5031590;28;20203;-78
2021/03/26 09:14:23;;;;;;;78.40;45.13;;;14.70;74.50;;;;;;5028609;28;20262;-77
2021/03/26 09:16:55;;;;;;;69.07;43.07;;;15.10;73.90;;;;;;5032393;28;20202;-78
2021/03/26 09:19:30;;;;;;;68.90;43.77;;;16.20;73.40;;;;;;5033442;28;20252;-77
2021/03/26 09:22:06;;;;;;;68.07;44.22;;;18.30;61.60;;;;;;5033621;28;20663;-78
2021/03/26 09:25:09;;;;;;;67.60;43.92;;;20.50;53.50;;;;;;5033753;28;20213;-78
2021/03/26 09:27:44;;;;;;;59.95;41.75;;;22.50;47.30;;;;;;5034023;28;20198;-75
2021/03/26 09:30:17;;;;;;;64.25;45.83;;;24.10;44.00;;;;;;5031649;28;20315;-76
2021/03/26 09:32:52;;;;;;;64.13;44.85;;;25.30;41.10;;;;;;5036737;28;20333;-75
2021/03/26 09:35:23;;;;;;;63.42;43.97;;;26.50;38.80;;;;;;5033677;28;20202;-76
2021/03/26 09:37:54;;;;;;;67.05;48.00;;;27.20;37.20;;;;;;5042791;28;20252;-76
2021/03/26 09:40:30;;;;;;;63.83;46.25;;;28.00;35.80;;;;;;5038416;28;20336;-75
2021/03/26 09:43:09;;;;;;;64.07;47.08;;;28.80;34.70;;;;;;5037779;28;20214;-76
2021/03/26 09:45:39;;;;;;;66.13;47.67;;;29.20;33.40;;;;;;5039321;28;20198;-76
2021/03/26 09:48:35;;;;;;;62.80;47.28;;;29.20;32.80;;;;;;5038000;28;20202;-77
2021/03/26 09:51:07;;;;;;;62.30;47.50;;;29.10;32.50;;;;;;5005450;28;20214;-76
2021/03/26 09:53:37;;;;;;;61.42;45.88;;;28.90;32.70;;;;;;5037826;28;20249;-76
2021/03/26 09:56:16;;;;;;;55.55;41.30;;;29.00;32.10;;;;;;5039211;28;20217;-76
2021/03/26 09:58:51;;;;;;;63.20;46.90;;;28.90;31.80;;;;;;5037396;28;20722;-76
2021/03/26 10:01:19;;;;;;;60.33;45.97;;;29.20;31.80;;;;;;5040845;28;20209;-75
2021/03/26 10:03:53;;;;;;;63.92;46.75;;;29.70;31.00;;;;;;5038336;28;20242;-76
2021/03/26 10:06:38;;;;;;;64.75;46.97;;;29.90;31.10;;;;;;5035266;28;20667;-77
2021/03/26 10:09:11;;;;;;;61.47;46.88;;;29.70;30.50;;;;;;5038738;28;20647;-76
2021/03/26 10:11:53;;;;;;;64.43;46.40;;;28.80;30.90;;;;;;5040486;28;20202;-76
2021/03/26 10:14:24;;;;;;;66.20;46.45;;;27.30;32.00;;;;;;5034638;28;20222;-76
2021/03/26 10:16:55;;;;;;;66.78;47.17;;;26.00;33.20;;;;;;5044325;28;20249;-75
2021/03/26 10:19:29;;;;;;;68.28;48.03;;;24.80;35.00;;;;;;5037644;28;20205;-75
2021/03/26 10:21:58;;;;;;;59.90;43.88;;;24.70;36.90;;;;;;5038377;28;20205;-75
2021/03/26 10:24:29;;;;;;;61.20;45.92;;;25.10;35.90;;;;;;5036080;28;20305;-75
2021/03/26 10:27:03;;;;;;;63.55;45.72;;;25.10;35.70;;;;;;5038137;28;20217;-74
2021/03/26 10:29:40;;;;;;;68.35;47.08;;;25.20;36.00;;;;;;5031564;28;20209;-76
2021/03/26 10:32:11;;;;;;;64.20;44.55;;;25.50;35.90;;;;;;5046924;28;20205;-75
2021/03/26 10:34:42;;;;;;;64.50;44.30;;;25.50;35.40;;;;;;5034928;28;20663;-74
2021/03/26 10:37:28;;;;;;;63.50;44.65;;;25.40;35.30;;;;;;5036666;28;20281;-75
2021/03/26 10:40:00;;;;;;;64.32;46.30;;;25.70;35.60;;;;;;5034609;28;20203;-73
2021/03/26 10:42:40;;;;;;;65.70;45.60;;;26.30;35.50;;;;;;5032259;28;20216;-74
2021/03/26 10:45:31;;;;;;;58.53;43.78;;;26.70;34.70;;;;;;5038000;28;20301;-74
2021/03/26 10:48:02;;;;;;;55.78;40.35;;;26.90;34.10;;;;;;5022673;28;20210;-76
2021/03/26 10:50:42;;;;;;;59.88;41.70;;;26.70;34.00;;;;;;5036367;28;20194;-77
2021/03/26 10:53:14;;;;;;;55.35;41.47;;;26.10;33.10;;;;;;5036068;28;20560;-76
2021/03/26 10:55:49;;;;;;;56.50;40.80;;;25.20;34.10;;;;;;5037611;28;20206;-77
2021/03/26 10:58:28;;;;;;;53.83;40.45;;;24.20;34.30;;;;;;5039458;28;20598;-76
2021/03/26 11:01:03;;;;;;;65.80;41.55;;;23.10;35.60;;;;;;5034603;28;20237;-74
2021/03/26 11:03:36;;;;;;;58.22;39.83;;;22.20;37.00;;;;;;5034959;28;20348;-74
2021/03/26 11:06:19;;;;;;;57.05;40.00;;;21.30;38.00;;;;;;5039593;28;20198;-76
2021/03/26 11:08:50;;;;;;;56.30;38.65;;;20.60;39.40;;;;;;5039494;28;20781;-76
2021/03/26 11:11:35;;;;;;;48.30;33.40;;;20.10;40.30;;;;;;5030557;28;20566;-74
2021/03/26 11:14:18;;;;;;;47.85;32.92;;;19.70;40.30;;;;;;5034661;28;20230;-74
2021/03/26 11:16:49;;;;;;;44.40;31.67;;;19.40;40.50;;;;;;5040080;28;20290;-75
2021/03/26 11:19:24;;;;;;;45.42;31.73;;;19.30;40.80;;;;;;5037630;28;20301;-75
2021/03/26 11:21:56;;;;;;;44.53;30.67;;;19.40;41.10;;;;;;5036084;28;20214;-75
2021/03/26 11:24:24;;;;;;;45.33;31.38;;;19.50;41.00;;;;;;5029808;28;20306;-74
2021/03/26 11:27:01;;;;;;;44.05;29.00;;;19.40;40.90;;;;;;5029211;28;20297;-74
2021/03/26 11:29:31;;;;;;;40.60;29.42;;;19.20;40.70;;;;;;5036143;28;20202;-74
2021/03/26 11:32:04;;;;;;;44.13;31.10;;;19.20;41.20;;;;;;5037706;28;20213;-74
2021/03/26 11:34:40;;;;;;;44.90;31.67;;;19.20;41.70;;;;;;5034734;28;20755;-74
2021/03/26 11:37:38;;;;;;;45.65;31.10;;;19.00;41.10;;;;;;5033986;28;20248;-75
2021/03/26 11:40:14;;;;;;;45.33;31.60;;;18.50;41.60;;;;;;5033278;28;20262;-74
2021/03/26 11:42:48;;;;;;;50.23;32.90;;;18.20;42.20;;;;;;5034291;28;20733;-75
2021/03/26 11:45:36;;;;;;;44.53;30.33;;;17.90;42.80;;;;;;5036110;28;20571;-74
2021/03/26 11:48:09;;;;;;;45.20;29.57;;;17.60;43.10;;;;;;5039105;28;20228;-76
2021/03/26 11:50:39;;;;;;;47.70;30.23;;;17.40;43.30;;;;;;5036331;28;20288;-76
2021/03/26 11:53:20;;;;;;;47.17;31.73;;;17.20;43.60;;;;;;5035475;28;20583;-74
2021/03/26 11:56:10;;;;;;;42.73;29.97;;;17.00;44.30;;;;;;5037327;28;20621;-74
2021/03/26 11:58:49;;;;;;;44.03;28.97;;;16.80;44.60;;;;;;5039985;28;20298;-79
2021/03/26 12:01:27;;;;;;;40.30;28.30;;;16.50;45.00;;;;;;5037240;28;20672;-78
2021/03/26 12:04:05;;;;;;;43.33;29.67;;;16.30;45.50;;;;;;5038771;28;20210;-79
2021/03/26 12:06:38;;;;;;;43.43;28.93;;;16.10;45.90;;;;;;5036888;28;20568;-75
2021/03/26 12:09:12;;;;;;;48.97;31.80;;;15.90;46.50;;;;;;5035322;28;20261;-77
2021/03/26 12:11:58;;;;;;;44.63;29.73;;;15.70;46.70;;;;;;5036726;28;20648;-75
2021/03/26 12:14:28;;;;;;;46.23;30.57;;;15.70;46.80;;;;;;5035484;28;20218;-77
2021/03/26 12:17:01;;;;;;;43.60;29.63;;;15.60;46.90;;;;;;5033916;28;20198;-77
2021/03/26 12:19:30;;;;;;;44.43;30.17;;;15.50;47.30;;;;;;5034210;28;20215;-75
2021/03/26 12:22:03;;;;;;;45.83;32.00;;;15.40;47.50;;;;;;5033720;28;20312;-75
2021/03/26 12:24:38;;;;;;;49.27;31.33;;;15.30;47.70;;;;;;5033290;28;20606;-74
2021/03/26 12:27:18;;;;;;;46.87;30.23;;;15.30;48.00;;;;;;5034344;28;20217;-78
2021/03/26 12:29:53;;;;;;;45.73;29.37;;;15.20;48.00;;;;;;5034879;28;20202;-76
2021/03/26 12:32:34;;;;;;;45.20;30.23;;;15.20;48.00;;;;;;5037492;28;20624;-76
2021/03/26 12:35:25;;;;;;;46.73;30.93;;;15.10;48.20;;;;;;5034861;28;20246;-78
2021/03/26 12:38:12;;;;;;;44.67;29.20;;;15.10;48.50;;;;;;5031211;28;20253;-77
2021/03/26 12:41:11;;;;;;;46.07;28.50;;;15.00;48.60;;;;;;5036273;28;20194;-76
2021/03/26 12:44:12;;;;;;;40.80;27.77;;;15.00;48.70;;;;;;5038722;28;20207;-78
2021/03/26 12:47:17;;;;;;;44.53;30.00;;;14.90;48.90;;;;;;5035736;28;20240;-79
2021/03/26 12:50:04;;;;;;;41.33;27.40;;;14.80;49.10;;;;;;5032272;28;20222;-79
2021/03/26 12:52:48;;;;;;;38.77;27.60;;;14.80;49.00;;;;;;5040467;28;20221;-78
2021/03/26 12:55:21;;;;;;;47.33;29.03;;;14.70;48.90;;;;;;5034435;28;20670;-76
2021/03/26 12:58:01;;;;;;;41.40;27.20;;;14.70;49.10;;;;;;5037357;28;20268;-71
2021/03/26 13:00:38;;;;;;;41.40;28.43;;;14.60;49.10;;;;;;5027842;28;20663;-77
2021/03/26 13:03:14;;;;;;;44.57;28.17;;;14.60;49.30;;;;;;5031649;28;20205;-77
2021/03/26 13:05:46;;;;;;;41.07;26.93;;;14.60;49.30;;;;;;5035642;28;20206;-76
2021/03/26 13:08:17;;;;;;;41.57;27.63;;;14.60;49.10;;;;;;5038954;28;20810;-76
2021/03/26 13:10:51;;;;;;;38.87;25.60;;;14.60;49.10;;;;;;5033693;28;20238;-76
2021/03/26 13:13:39;;;;;;;41.30;26.50;;;14.50;48.70;;;;;;5033559;28;20278;-76
2021/03/26 13:16:24;;;;;;;38.00;24.80;;;14.60;48.60;;;;;;5033019;28;20244;-76
2021/03/26 13:18:54;;;;;;;36.83;24.27;;;14.50;48.00;;;;;;5035120;28;20265;-76
2021/03/26 13:21:33;;;;;;;36.13;24.53;;;14.50;47.80;;;;;;5032225;28;20237;-77
2021/03/26 13:24:11;;;;;;;39.27;25.60;;;14.50;47.80;;;;;;5037629;28;20293;-76
2021/03/26 13:26:39;;;;;;;37.37;25.60;;;14.50;47.80;;;;;;5037644;28;20239;-77